sensor_id;sensor_type;location;lat;lon;timestamp;P1;durP1;ratioP1;P2;durP2;ratioP2
48052;SDS011;33824;51.600;5.718;2022-09-16T00:00:21;5.32;;;0.80;;
48052;SDS011;33824;51.600;5.718;2022-09-16T00:03:08;1.50;;;0.70;;
48052;SDS011;33824;51.600;5.718;2022-09-16T00:05:39;3.85;;;0.82;;
48052;SDS011;33824;51.600;5.718;2022-09-16T00:10:32;6.03;;;1.05;;
48052;SDS011;33824;51.600;5.718;2022-09-16T00:12:57;6.00;;;1.13;;
48052;SDS011;33824;51.600;5.718;2022-09-16T00:15:23;2.25;;;0.80;;
48052;SDS011;33824;51.600;5.718;2022-09-16T00:17:48;3.92;;;0.90;;
48052;SDS011;33824;51.600;5.718;2022-09-16T00:20:14;8.63;;;1.13;;
48052;SDS011;33824;51.600;5.718;2022-09-16T00:22:39;1.77;;;0.80;;
48052;SDS011;33824;51.600;5.718;2022-09-16T00:25:05;3.95;;;0.90;;
48052;SDS011;33824;51.600;5.718;2022-09-16T00:27:31;4.07;;;0.80;;
48052;SDS011;33824;51.600;5.718;2022-09-16T00:29:56;6.60;;;0.88;;
48052;SDS011;33824;51.600;5.718;2022-09-16T00:32:22;3.35;;;1.10;;
48052;SDS011;33824;51.600;5.718;2022-09-16T00:34:49;6.07;;;0.80;;
48052;SDS011;33824;51.600;5.718;2022-09-16T00:37:15;3.83;;;1.00;;
48052;SDS011;33824;51.600;5.718;2022-09-16T00:39:41;6.15;;;0.93;;
48052;SDS011;33824;51.600;5.718;2022-09-16T00:42:09;8.35;;;1.27;;
48052;SDS011;33824;51.600;5.718;2022-09-16T00:47:24;6.57;;;1.20;;
48052;SDS011;33824;51.600;5.718;2022-09-16T00:49:56;4.70;;;0.73;;
48052;SDS011;33824;51.600;5.718;2022-09-16T00:52:26;3.58;;;1.30;;
48052;SDS011;33824;51.600;5.718;2022-09-16T00:54:53;7.03;;;0.98;;
48052;SDS011;33824;51.600;5.718;2022-09-16T00:57:19;2.97;;;1.15;;
48052;SDS011;33824;51.600;5.718;2022-09-16T00:59:45;4.60;;;1.00;;
48052;SDS011;33824;51.600;5.718;2022-09-16T01:02:15;4.22;;;0.95;;
48052;SDS011;33824;51.600;5.718;2022-09-16T01:04:50;4.90;;;1.20;;
48052;SDS011;33824;51.600;5.718;2022-09-16T01:07:29;5.63;;;0.80;;
48052;SDS011;33824;51.600;5.718;2022-09-16T01:10:13;6.55;;;1.23;;
48052;SDS011;33824;51.600;5.718;2022-09-16T01:12:44;3.58;;;0.82;;
48052;SDS011;33824;51.600;5.718;2022-09-16T01:15:12;3.95;;;0.90;;
48052;SDS011;33824;51.600;5.718;2022-09-16T01:31:11;4.80;;;1.00;;
48052;SDS011;33824;51.600;5.718;2022-09-16T01:34:01;4.78;;;1.00;;
48052;SDS011;33824;51.600;5.718;2022-09-16T01:42:25;5.68;;;1.27;;
48052;SDS011;33824;51.600;5.718;2022-09-16T01:47:56;7.55;;;1.15;;
48052;SDS011;33824;51.600;5.718;2022-09-16T01:50:28;3.47;;;1.00;;
48052;SDS011;33824;51.600;5.718;2022-09-16T01:56:07;1.83;;;0.80;;
48052;SDS011;33824;51.600;5.718;2022-09-16T01:58:58;4.45;;;0.98;;
48052;SDS011;33824;51.600;5.718;2022-09-16T02:01:45;3.25;;;1.30;;
48052;SDS011;33824;51.600;5.718;2022-09-16T02:04:16;6.68;;;1.00;;
48052;SDS011;33824;51.600;5.718;2022-09-16T02:06:47;4.20;;;0.80;;
48052;SDS011;33824;51.600;5.718;2022-09-16T02:09:17;2.35;;;0.95;;
48052;SDS011;33824;51.600;5.718;2022-09-16T02:11:48;5.60;;;1.03;;
48052;SDS011;33824;51.600;5.718;2022-09-16T02:14:26;4.72;;;0.93;;
48052;SDS011;33824;51.600;5.718;2022-09-16T02:16:57;4.15;;;0.98;;
48052;SDS011;33824;51.600;5.718;2022-09-16T02:19:28;8.25;;;1.35;;
48052;SDS011;33824;51.600;5.718;2022-09-16T02:22:01;3.38;;;0.90;;
48052;SDS011;33824;51.600;5.718;2022-09-16T02:24:33;1.83;;;1.00;;
48052;SDS011;33824;51.600;5.718;2022-09-16T02:27:01;4.03;;;0.90;;
48052;SDS011;33824;51.600;5.718;2022-09-16T02:29:40;2.03;;;0.88;;
48052;SDS011;33824;51.600;5.718;2022-09-16T02:32:08;8.88;;;1.33;;
48052;SDS011;33824;51.600;5.718;2022-09-16T02:34:39;5.85;;;1.27;;
48052;SDS011;33824;51.600;5.718;2022-09-16T02:37:10;5.15;;;1.00;;
48052;SDS011;33824;51.600;5.718;2022-09-16T02:39:41;6.05;;;1.33;;
48052;SDS011;33824;51.600;5.718;2022-09-16T02:42:12;6.47;;;2.03;;
48052;SDS011;33824;51.600;5.718;2022-09-16T02:44:38;8.02;;;1.42;;
48052;SDS011;33824;51.600;5.718;2022-09-16T02:47:08;6.70;;;1.50;;
48052;SDS011;33824;51.600;5.718;2022-09-16T02:49:57;5.63;;;1.40;;
48052;SDS011;33824;51.600;5.718;2022-09-16T02:52:35;4.55;;;1.08;;
48052;SDS011;33824;51.600;5.718;2022-09-16T02:57:33;2.83;;;1.00;;
48052;SDS011;33824;51.600;5.718;2022-09-16T02:59:59;11.73;;;1.40;;
48052;SDS011;33824;51.600;5.718;2022-09-16T03:02:24;5.47;;;1.33;;
48052;SDS011;33824;51.600;5.718;2022-09-16T03:04:50;7.63;;;1.50;;
48052;SDS011;33824;51.600;5.718;2022-09-16T03:07:18;6.25;;;1.48;;
48052;SDS011;33824;51.600;5.718;2022-09-16T03:09:44;5.63;;;1.25;;
48052;SDS011;33824;51.600;5.718;2022-09-16T03:15:22;3.05;;;0.85;;
48052;SDS011;33824;51.600;5.718;2022-09-16T03:18:10;4.20;;;1.27;;
48052;SDS011;33824;51.600;5.718;2022-09-16T03:20:50;5.95;;;1.45;;
48052;SDS011;33824;51.600;5.718;2022-09-16T03:28:53;4.80;;;1.17;;
48052;SDS011;33824;51.600;5.718;2022-09-16T03:31:30;2.95;;;1.20;;
48052;SDS011;33824;51.600;5.718;2022-09-16T03:34:08;5.95;;;1.40;;
48052;SDS011;33824;51.600;5.718;2022-09-16T03:36:46;5.93;;;1.48;;
48052;SDS011;33824;51.600;5.718;2022-09-16T03:39:16;6.88;;;1.90;;
48052;SDS011;33824;51.600;5.718;2022-09-16T03:41:43;6.63;;;1.40;;
48052;SDS011;33824;51.600;5.718;2022-09-16T03:44:09;8.25;;;1.50;;
48052;SDS011;33824;51.600;5.718;2022-09-16T03:46:34;3.92;;;1.15;;
48052;SDS011;33824;51.600;5.718;2022-09-16T03:49:00;2.78;;;1.13;;
48052;SDS011;33824;51.600;5.718;2022-09-16T03:51:26;8.80;;;1.42;;
48052;SDS011;33824;51.600;5.718;2022-09-16T03:53:52;9.20;;;1.55;;
48052;SDS011;33824;51.600;5.718;2022-09-16T03:56:18;3.47;;;1.30;;
48052;SDS011;33824;51.600;5.718;2022-09-16T03:58:45;2.65;;;1.30;;
48052;SDS011;33824;51.600;5.718;2022-09-16T04:01:12;5.47;;;1.35;;
48052;SDS011;33824;51.600;5.718;2022-09-16T04:03:38;4.25;;;1.35;;
48052;SDS011;33824;51.600;5.718;2022-09-16T04:06:04;7.15;;;1.83;;
48052;SDS011;33824;51.600;5.718;2022-09-16T04:08:30;4.63;;;1.42;;
48052;SDS011;33824;51.600;5.718;2022-09-16T04:10:56;3.22;;;0.90;;
48052;SDS011;33824;51.600;5.718;2022-09-16T04:13:23;7.80;;;1.52;;
48052;SDS011;33824;51.600;5.718;2022-09-16T04:15:50;4.45;;;1.25;;
48052;SDS011;33824;51.600;5.718;2022-09-16T04:18:16;7.38;;;1.20;;
48052;SDS011;33824;51.600;5.718;2022-09-16T04:20:42;1.77;;;0.82;;
48052;SDS011;33824;51.600;5.718;2022-09-16T04:23:08;2.33;;;0.95;;
48052;SDS011;33824;51.600;5.718;2022-09-16T04:25:34;2.97;;;1.05;;
48052;SDS011;33824;51.600;5.718;2022-09-16T04:27:59;4.85;;;1.17;;
48052;SDS011;33824;51.600;5.718;2022-09-16T04:30:25;3.20;;;0.80;;
48052;SDS011;33824;51.600;5.718;2022-09-16T04:32:54;3.90;;;0.80;;
48052;SDS011;33824;51.600;5.718;2022-09-16T04:35:20;2.33;;;0.68;;
48052;SDS011;33824;51.600;5.718;2022-09-16T04:37:47;3.85;;;0.50;;
48052;SDS011;33824;51.600;5.718;2022-09-16T04:40:13;2.05;;;0.60;;
48052;SDS011;33824;51.600;5.718;2022-09-16T04:42:38;1.92;;;0.57;;
48052;SDS011;33824;51.600;5.718;2022-09-16T04:45:04;6.90;;;0.90;;
48052;SDS011;33824;51.600;5.718;2022-09-16T04:47:30;3.25;;;0.80;;
48052;SDS011;33824;51.600;5.718;2022-09-16T04:49:55;3.80;;;0.65;;
48052;SDS011;33824;51.600;5.718;2022-09-16T04:52:21;4.45;;;0.88;;
48052;SDS011;33824;51.600;5.718;2022-09-16T04:54:46;2.15;;;0.60;;
48052;SDS011;33824;51.600;5.718;2022-09-16T04:57:12;3.25;;;0.90;;
48052;SDS011;33824;51.600;5.718;2022-09-16T04:59:37;1.73;;;0.68;;
48052;SDS011;33824;51.600;5.718;2022-09-16T05:02:03;3.63;;;0.60;;
48052;SDS011;33824;51.600;5.718;2022-09-16T05:04:28;2.33;;;0.73;;
48052;SDS011;33824;51.600;5.718;2022-09-16T05:06:54;1.92;;;1.13;;
48052;SDS011;33824;51.600;5.718;2022-09-16T05:09:19;1.83;;;0.60;;
48052;SDS011;33824;51.600;5.718;2022-09-16T05:11:47;4.53;;;0.95;;
48052;SDS011;33824;51.600;5.718;2022-09-16T05:14:13;1.38;;;0.60;;
48052;SDS011;33824;51.600;5.718;2022-09-16T05:16:40;2.40;;;0.60;;
48052;SDS011;33824;51.600;5.718;2022-09-16T05:19:06;2.53;;;0.60;;
48052;SDS011;33824;51.600;5.718;2022-09-16T05:21:33;7.47;;;0.80;;
48052;SDS011;33824;51.600;5.718;2022-09-16T05:24:01;4.70;;;0.85;;
48052;SDS011;33824;51.600;5.718;2022-09-16T05:26:29;3.08;;;0.50;;
48052;SDS011;33824;51.600;5.718;2022-09-16T05:28:58;6.88;;;0.70;;
48052;SDS011;33824;51.600;5.718;2022-09-16T05:31:26;2.50;;;0.43;;
48052;SDS011;33824;51.600;5.718;2022-09-16T05:36:31;4.90;;;0.95;;
48052;SDS011;33824;51.600;5.718;2022-09-16T05:39:00;3.17;;;0.70;;
48052;SDS011;33824;51.600;5.718;2022-09-16T05:41:26;2.75;;;0.47;;
48052;SDS011;33824;51.600;5.718;2022-09-16T05:43:51;2.58;;;0.38;;
48052;SDS011;33824;51.600;5.718;2022-09-16T05:46:19;5.70;;;1.05;;
48052;SDS011;33824;51.600;5.718;2022-09-16T05:48:46;2.75;;;0.63;;
48052;SDS011;33824;51.600;5.718;2022-09-16T05:51:13;4.88;;;0.80;;
48052;SDS011;33824;51.600;5.718;2022-09-16T05:53:40;2.03;;;0.80;;
48052;SDS011;33824;51.600;5.718;2022-09-16T05:56:09;2.60;;;0.68;;
48052;SDS011;33824;51.600;5.718;2022-09-16T05:58:36;3.50;;;0.70;;
48052;SDS011;33824;51.600;5.718;2022-09-16T06:01:08;2.20;;;0.82;;
48052;SDS011;33824;51.600;5.718;2022-09-16T06:03:37;4.60;;;0.85;;
48052;SDS011;33824;51.600;5.718;2022-09-16T06:06:05;3.67;;;0.57;;
48052;SDS011;33824;51.600;5.718;2022-09-16T06:08:49;5.20;;;0.65;;
48052;SDS011;33824;51.600;5.718;2022-09-16T06:11:16;1.02;;;0.55;;
48052;SDS011;33824;51.600;5.718;2022-09-16T06:13:42;3.05;;;0.57;;
48052;SDS011;33824;51.600;5.718;2022-09-16T06:16:08;1.67;;;0.40;;
48052;SDS011;33824;51.600;5.718;2022-09-16T06:18:34;3.25;;;0.63;;
48052;SDS011;33824;51.600;5.718;2022-09-16T06:21:05;3.20;;;0.50;;
48052;SDS011;33824;51.600;5.718;2022-09-16T06:23:33;3.30;;;0.60;;
48052;SDS011;33824;51.600;5.718;2022-09-16T06:26:04;2.33;;;0.77;;
48052;SDS011;33824;51.600;5.718;2022-09-16T06:31:01;5.63;;;1.15;;
48052;SDS011;33824;51.600;5.718;2022-09-16T06:33:32;1.60;;;0.28;;
48052;SDS011;33824;51.600;5.718;2022-09-16T06:36:03;1.23;;;0.82;;
48052;SDS011;33824;51.600;5.718;2022-09-16T06:38:32;4.07;;;0.60;;
48052;SDS011;33824;51.600;5.718;2022-09-16T06:41:03;0.40;;;0.32;;
48052;SDS011;33824;51.600;5.718;2022-09-16T06:45:59;2.78;;;0.38;;
48052;SDS011;33824;51.600;5.718;2022-09-16T06:48:27;2.92;;;0.68;;
48052;SDS011;33824;51.600;5.718;2022-09-16T06:51:00;2.08;;;0.52;;
48052;SDS011;33824;51.600;5.718;2022-09-16T06:53:27;8.60;;;0.75;;
48052;SDS011;33824;51.600;5.718;2022-09-16T06:55:54;2.83;;;0.60;;
48052;SDS011;33824;51.600;5.718;2022-09-16T06:58:20;2.97;;;0.73;;
48052;SDS011;33824;51.600;5.718;2022-09-16T07:00:45;3.85;;;0.75;;
48052;SDS011;33824;51.600;5.718;2022-09-16T07:03:11;1.92;;;0.80;;
48052;SDS011;33824;51.600;5.718;2022-09-16T07:05:36;3.55;;;0.70;;
48052;SDS011;33824;51.600;5.718;2022-09-16T07:08:02;2.67;;;0.73;;
48052;SDS011;33824;51.600;5.718;2022-09-16T07:10:28;1.60;;;0.60;;
48052;SDS011;33824;51.600;5.718;2022-09-16T07:12:54;1.63;;;0.63;;
48052;SDS011;33824;51.600;5.718;2022-09-16T07:15:20;2.03;;;0.80;;
48052;SDS011;33824;51.600;5.718;2022-09-16T07:17:46;4.25;;;0.80;;
48052;SDS011;33824;51.600;5.718;2022-09-16T07:20:11;5.70;;;1.45;;
48052;SDS011;33824;51.600;5.718;2022-09-16T07:22:37;1.25;;;0.60;;
48052;SDS011;33824;51.600;5.718;2022-09-16T07:25:05;6.00;;;1.05;;
48052;SDS011;33824;51.600;5.718;2022-09-16T07:27:31;2.97;;;0.70;;
48052;SDS011;33824;51.600;5.718;2022-09-16T07:29:56;2.90;;;0.63;;
48052;SDS011;33824;51.600;5.718;2022-09-16T07:32:22;3.33;;;0.82;;
48052;SDS011;33824;51.600;5.718;2022-09-16T07:34:48;1.70;;;0.60;;
48052;SDS011;33824;51.600;5.718;2022-09-16T07:37:13;2.90;;;0.50;;
48052;SDS011;33824;51.600;5.718;2022-09-16T07:39:39;1.45;;;0.63;;
48052;SDS011;33824;51.600;5.718;2022-09-16T07:42:05;4.15;;;0.60;;
48052;SDS011;33824;51.600;5.718;2022-09-16T07:44:31;5.55;;;0.88;;
48052;SDS011;33824;51.600;5.718;2022-09-16T07:46:57;3.83;;;0.85;;
48052;SDS011;33824;51.600;5.718;2022-09-16T07:49:22;2.15;;;0.52;;
48052;SDS011;33824;51.600;5.718;2022-09-16T07:51:48;5.75;;;0.88;;
48052;SDS011;33824;51.600;5.718;2022-09-16T07:54:15;4.55;;;0.80;;
48052;SDS011;33824;51.600;5.718;2022-09-16T07:56:42;7.45;;;0.65;;
48052;SDS011;33824;51.600;5.718;2022-09-16T07:59:13;4.35;;;0.60;;
48052;SDS011;33824;51.600;5.718;2022-09-16T08:01:41;4.03;;;0.60;;
48052;SDS011;33824;51.600;5.718;2022-09-16T08:04:06;1.17;;;0.40;;
48052;SDS011;33824;51.600;5.718;2022-09-16T08:06:32;3.22;;;0.57;;
48052;SDS011;33824;51.600;5.718;2022-09-16T08:08:58;4.68;;;0.40;;
48052;SDS011;33824;51.600;5.718;2022-09-16T08:11:29;4.80;;;0.52;;
48052;SDS011;33824;51.600;5.718;2022-09-16T08:13:56;5.53;;;0.82;;
48052;SDS011;33824;51.600;5.718;2022-09-16T08:16:23;4.40;;;0.70;;
48052;SDS011;33824;51.600;5.718;2022-09-16T08:18:50;3.67;;;0.50;;
48052;SDS011;33824;51.600;5.718;2022-09-16T08:21:20;3.53;;;0.65;;
48052;SDS011;33824;51.600;5.718;2022-09-16T08:23:48;2.65;;;0.50;;
48052;SDS011;33824;51.600;5.718;2022-09-16T08:26:14;2.58;;;0.50;;
48052;SDS011;33824;51.600;5.718;2022-09-16T08:28:41;3.97;;;0.60;;
48052;SDS011;33824;51.600;5.718;2022-09-16T08:31:07;4.03;;;0.55;;
48052;SDS011;33824;51.600;5.718;2022-09-16T08:33:33;4.78;;;0.63;;
48052;SDS011;33824;51.600;5.718;2022-09-16T08:36:03;6.45;;;0.70;;
48052;SDS011;33824;51.600;5.718;2022-09-16T08:38:32;1.85;;;0.50;;
48052;SDS011;33824;51.600;5.718;2022-09-16T08:44:11;4.10;;;1.00;;
48052;SDS011;33824;51.600;5.718;2022-09-16T08:46:54;5.60;;;0.77;;
48052;SDS011;33824;51.600;5.718;2022-09-16T08:51:51;3.35;;;0.55;;
48052;SDS011;33824;51.600;5.718;2022-09-16T08:54:23;5.20;;;0.70;;
48052;SDS011;33824;51.600;5.718;2022-09-16T08:56:53;2.92;;;0.60;;
48052;SDS011;33824;51.600;5.718;2022-09-16T08:59:23;2.08;;;0.65;;
48052;SDS011;33824;51.600;5.718;2022-09-16T09:01:55;4.13;;;0.68;;
48052;SDS011;33824;51.600;5.718;2022-09-16T09:04:41;4.15;;;0.80;;
48052;SDS011;33824;51.600;5.718;2022-09-16T09:13:26;5.85;;;0.75;;
48052;SDS011;33824;51.600;5.718;2022-09-16T09:16:09;1.05;;;0.40;;
48052;SDS011;33824;51.600;5.718;2022-09-16T09:21:38;6.25;;;0.88;;
48052;SDS011;33824;51.600;5.718;2022-09-16T09:27:03;2.17;;;0.50;;
48052;SDS011;33824;51.600;5.718;2022-09-16T09:32:31;3.60;;;0.70;;
48052;SDS011;33824;51.600;5.718;2022-09-16T09:40:10;4.68;;;0.63;;
48052;SDS011;33824;51.600;5.718;2022-09-16T09:42:48;3.53;;;0.90;;
48052;SDS011;33824;51.600;5.718;2022-09-16T09:45:23;4.18;;;0.60;;
48052;SDS011;33824;51.600;5.718;2022-09-16T09:53:28;3.60;;;0.47;;
48052;SDS011;33824;51.600;5.718;2022-09-16T10:01:35;1.65;;;0.40;;
48052;SDS011;33824;51.600;5.718;2022-09-16T10:04:00;5.22;;;0.38;;
48052;SDS011;33824;51.600;5.718;2022-09-16T10:06:27;1.40;;;0.30;;
48052;SDS011;33824;51.600;5.718;2022-09-16T10:08:57;0.88;;;0.43;;
48052;SDS011;33824;51.600;5.718;2022-09-16T10:11:24;2.13;;;0.28;;
48052;SDS011;33824;51.600;5.718;2022-09-16T10:16:30;1.13;;;0.30;;
48052;SDS011;33824;51.600;5.718;2022-09-16T10:19:15;1.73;;;0.15;;
48052;SDS011;33824;51.600;5.718;2022-09-16T10:21:48;0.90;;;0.40;;
48052;SDS011;33824;51.600;5.718;2022-09-16T10:24:33;5.72;;;0.55;;
48052;SDS011;33824;51.600;5.718;2022-09-16T10:27:18;1.35;;;0.40;;
48052;SDS011;33824;51.600;5.718;2022-09-16T10:29:45;0.93;;;0.20;;
48052;SDS011;33824;51.600;5.718;2022-09-16T10:32:16;8.40;;;0.38;;
48052;SDS011;33824;51.600;5.718;2022-09-16T10:34:44;0.85;;;0.20;;
48052;SDS011;33824;51.600;5.718;2022-09-16T10:39:39;3.15;;;0.55;;
48052;SDS011;33824;51.600;5.718;2022-09-16T10:42:23;3.95;;;0.55;;
48052;SDS011;33824;51.600;5.718;2022-09-16T10:44:52;2.70;;;0.30;;
48052;SDS011;33824;51.600;5.718;2022-09-16T10:47:21;2.20;;;0.40;;
48052;SDS011;33824;51.600;5.718;2022-09-16T10:49:53;2.97;;;1.13;;
48052;SDS011;33824;51.600;5.718;2022-09-16T10:54:48;6.05;;;0.70;;
48052;SDS011;33824;51.600;5.718;2022-09-16T10:57:21;3.55;;;0.80;;
48052;SDS011;33824;51.600;5.718;2022-09-16T11:00:02;10.07;;;0.70;;
48052;SDS011;33824;51.600;5.718;2022-09-16T11:16:25;2.35;;;0.60;;
48052;SDS011;33824;51.600;5.718;2022-09-16T11:19:25;3.10;;;0.80;;
48052;SDS011;33824;51.600;5.718;2022-09-16T11:22:53;2.08;;;0.70;;
48052;SDS011;33824;51.600;5.718;2022-09-16T11:25:15;6.72;;;0.70;;
48052;SDS011;33824;51.600;5.718;2022-09-16T11:28:06;2.30;;;0.70;;
48052;SDS011;33824;51.600;5.718;2022-09-16T11:33:55;5.97;;;0.55;;
48052;SDS011;33824;51.600;5.718;2022-09-16T11:36:48;6.10;;;0.95;;
48052;SDS011;33824;51.600;5.718;2022-09-16T11:39:47;2.20;;;0.63;;
48052;SDS011;33824;51.600;5.718;2022-09-16T11:48:25;2.95;;;0.80;;
48052;SDS011;33824;51.600;5.718;2022-09-16T11:50:39;3.65;;;0.40;;
48052;SDS011;33824;51.600;5.718;2022-09-16T11:56:05;3.45;;;0.60;;
48052;SDS011;33824;51.600;5.718;2022-09-16T11:58:37;2.38;;;0.50;;
48052;SDS011;33824;51.600;5.718;2022-09-16T12:01:35;2.60;;;0.45;;
48052;SDS011;33824;51.600;5.718;2022-09-16T12:07:02;0.95;;;0.20;;
48052;SDS011;33824;51.600;5.718;2022-09-16T12:09:56;0.35;;;0.20;;
48052;SDS011;33824;51.600;5.718;2022-09-16T12:12:38;2.07;;;0.40;;
48052;SDS011;33824;51.600;5.718;2022-09-16T12:17:47;2.75;;;0.40;;
48052;SDS011;33824;51.600;5.718;2022-09-16T12:20:19;1.70;;;0.32;;
48052;SDS011;33824;51.600;5.718;2022-09-16T12:22:53;2.50;;;0.50;;
48052;SDS011;33824;51.600;5.718;2022-09-16T12:25:39;1.33;;;0.55;;
48052;SDS011;33824;51.600;5.718;2022-09-16T12:31:15;1.75;;;0.30;;
48052;SDS011;33824;51.600;5.718;2022-09-16T12:33:48;2.65;;;0.32;;
48052;SDS011;33824;51.600;5.718;2022-09-16T12:36:20;0.60;;;0.30;;
48052;SDS011;33824;51.600;5.718;2022-09-16T12:38:49;1.33;;;0.40;;
48052;SDS011;33824;51.600;5.718;2022-09-16T12:52:48;2.25;;;0.50;;
48052;SDS011;33824;51.600;5.718;2022-09-16T12:55:30;0.57;;;0.20;;
48052;SDS011;33824;51.600;5.718;2022-09-16T12:58:11;2.25;;;0.40;;
48052;SDS011;33824;51.600;5.718;2022-09-16T13:03:48;3.60;;;0.70;;
48052;SDS011;33824;51.600;5.718;2022-09-16T13:06:22;2.47;;;0.38;;
48052;SDS011;33824;51.600;5.718;2022-09-16T13:08:56;4.80;;;0.52;;
48052;SDS011;33824;51.600;5.718;2022-09-16T13:11:50;2.13;;;0.50;;
48052;SDS011;33824;51.600;5.718;2022-09-16T13:14:19;2.78;;;0.47;;
48052;SDS011;33824;51.600;5.718;2022-09-16T13:16:53;4.32;;;0.50;;
48052;SDS011;33824;51.600;5.718;2022-09-16T13:19:34;2.72;;;0.40;;
48052;SDS011;33824;51.600;5.718;2022-09-16T13:22:25;2.05;;;0.30;;
48052;SDS011;33824;51.600;5.718;2022-09-16T13:25:10;4.25;;;0.70;;
48052;SDS011;33824;51.600;5.718;2022-09-16T13:30:46;4.32;;;0.50;;
48052;SDS011;33824;51.600;5.718;2022-09-16T13:40:38;3.00;;;0.52;;
48052;SDS011;33824;51.600;5.718;2022-09-16T13:43:16;3.28;;;0.73;;
48052;SDS011;33824;51.600;5.718;2022-09-16T13:45:42;3.20;;;0.75;;
48052;SDS011;33824;51.600;5.718;2022-09-16T13:50:39;3.33;;;0.40;;
48052;SDS011;33824;51.600;5.718;2022-09-16T13:53:17;1.10;;;0.40;;
48052;SDS011;33824;51.600;5.718;2022-09-16T13:55:47;1.25;;;0.40;;
48052;SDS011;33824;51.600;5.718;2022-09-16T13:58:18;4.72;;;0.80;;
48052;SDS011;33824;51.600;5.718;2022-09-16T14:00:56;4.55;;;0.50;;
48052;SDS011;33824;51.600;5.718;2022-09-16T14:03:35;1.75;;;0.40;;
48052;SDS011;33824;51.600;5.718;2022-09-16T14:14:37;1.80;;;0.50;;
48052;SDS011;33824;51.600;5.718;2022-09-16T14:17:04;0.68;;;0.38;;
48052;SDS011;33824;51.600;5.718;2022-09-16T14:19:38;7.82;;;0.60;;
48052;SDS011;33824;51.600;5.718;2022-09-16T14:24:36;3.42;;;0.88;;
48052;SDS011;33824;51.600;5.718;2022-09-16T14:27:17;3.42;;;0.60;;
48052;SDS011;33824;51.600;5.718;2022-09-16T14:29:58;3.67;;;0.43;;
48052;SDS011;33824;51.600;5.718;2022-09-16T14:32:27;2.03;;;0.50;;
48052;SDS011;33824;51.600;5.718;2022-09-16T14:34:55;3.30;;;0.55;;
48052;SDS011;33824;51.600;5.718;2022-09-16T14:37:24;1.23;;;0.50;;
48052;SDS011;33824;51.600;5.718;2022-09-16T14:39:52;4.38;;;0.43;;
48052;SDS011;33824;51.600;5.718;2022-09-16T14:42:21;3.88;;;0.40;;
48052;SDS011;33824;51.600;5.718;2022-09-16T14:44:51;3.42;;;1.33;;
48052;SDS011;33824;51.600;5.718;2022-09-16T14:47:23;3.50;;;0.77;;
48052;SDS011;33824;51.600;5.718;2022-09-16T14:50:01;4.25;;;0.77;;
48052;SDS011;33824;51.600;5.718;2022-09-16T14:52:31;5.82;;;0.90;;
48052;SDS011;33824;51.600;5.718;2022-09-16T14:54:58;4.97;;;1.15;;
48052;SDS011;33824;51.600;5.718;2022-09-16T14:57:25;3.80;;;0.50;;
48052;SDS011;33824;51.600;5.718;2022-09-16T14:59:57;5.90;;;1.30;;
48052;SDS011;33824;51.600;5.718;2022-09-16T15:05:19;2.53;;;0.45;;
48052;SDS011;33824;51.600;5.718;2022-09-16T15:07:51;3.53;;;0.40;;
48052;SDS011;33824;51.600;5.718;2022-09-16T15:10:25;5.70;;;0.90;;
48052;SDS011;33824;51.600;5.718;2022-09-16T15:12:59;10.25;;;0.82;;
48052;SDS011;33824;51.600;5.718;2022-09-16T15:15:28;2.92;;;0.70;;
48052;SDS011;33824;51.600;5.718;2022-09-16T15:18:00;2.45;;;0.80;;
48052;SDS011;33824;51.600;5.718;2022-09-16T15:20:39;2.95;;;0.77;;
48052;SDS011;33824;51.600;5.718;2022-09-16T15:23:13;1.70;;;0.55;;
48052;SDS011;33824;51.600;5.718;2022-09-16T15:25:52;4.97;;;0.80;;
48052;SDS011;33824;51.600;5.718;2022-09-16T15:28:20;3.13;;;0.70;;
48052;SDS011;33824;51.600;5.718;2022-09-16T15:30:46;4.50;;;0.80;;
48052;SDS011;33824;51.600;5.718;2022-09-16T15:33:22;3.08;;;0.75;;
48052;SDS011;33824;51.600;5.718;2022-09-16T15:38:20;5.40;;;0.98;;
48052;SDS011;33824;51.600;5.718;2022-09-16T15:40:48;5.28;;;0.90;;
48052;SDS011;33824;51.600;5.718;2022-09-16T15:43:26;2.75;;;0.75;;
48052;SDS011;33824;51.600;5.718;2022-09-16T15:45:57;4.97;;;0.85;;
48052;SDS011;33824;51.600;5.718;2022-09-16T15:48:25;8.35;;;1.58;;
48052;SDS011;33824;51.600;5.718;2022-09-16T15:50:58;1.95;;;0.57;;
48052;SDS011;33824;51.600;5.718;2022-09-16T15:55:57;2.05;;;0.70;;
48052;SDS011;33824;51.600;5.718;2022-09-16T16:03:45;8.63;;;1.05;;
48052;SDS011;33824;51.600;5.718;2022-09-16T16:06:16;9.10;;;1.02;;
48052;SDS011;33824;51.600;5.718;2022-09-16T16:08:43;6.80;;;1.83;;
48052;SDS011;33824;51.600;5.718;2022-09-16T16:11:18;5.75;;;1.15;;
48052;SDS011;33824;51.600;5.718;2022-09-16T16:13:45;5.32;;;0.65;;
48052;SDS011;33824;51.600;5.718;2022-09-16T16:16:12;4.03;;;0.77;;
48052;SDS011;33824;51.600;5.718;2022-09-16T16:18:39;5.32;;;0.60;;
48052;SDS011;33824;51.600;5.718;2022-09-16T16:21:07;6.07;;;0.80;;
48052;SDS011;33824;51.600;5.718;2022-09-16T16:23:37;5.10;;;0.70;;
48052;SDS011;33824;51.600;5.718;2022-09-16T16:26:04;2.90;;;0.65;;
48052;SDS011;33824;51.600;5.718;2022-09-16T16:28:31;5.85;;;0.70;;
48052;SDS011;33824;51.600;5.718;2022-09-16T16:31:10;5.35;;;0.90;;
48052;SDS011;33824;51.600;5.718;2022-09-16T16:33:43;2.28;;;0.70;;
48052;SDS011;33824;51.600;5.718;2022-09-16T16:36:11;4.20;;;0.68;;
48052;SDS011;33824;51.600;5.718;2022-09-16T16:38:38;3.67;;;0.60;;
48052;SDS011;33824;51.600;5.718;2022-09-16T16:41:05;9.32;;;1.15;;
48052;SDS011;33824;51.600;5.718;2022-09-16T16:43:32;4.57;;;0.80;;
48052;SDS011;33824;51.600;5.718;2022-09-16T16:45:58;7.53;;;0.80;;
48052;SDS011;33824;51.600;5.718;2022-09-16T16:48:25;4.40;;;1.27;;
48052;SDS011;33824;51.600;5.718;2022-09-16T16:50:55;5.18;;;1.05;;
48052;SDS011;33824;51.600;5.718;2022-09-16T16:53:22;5.60;;;1.17;;
48052;SDS011;33824;51.600;5.718;2022-09-16T16:55:48;8.35;;;0.90;;
48052;SDS011;33824;51.600;5.718;2022-09-16T16:58:14;7.28;;;0.85;;
48052;SDS011;33824;51.600;5.718;2022-09-16T17:00:40;1.83;;;0.70;;
48052;SDS011;33824;51.600;5.718;2022-09-16T17:03:05;7.90;;;1.08;;
48052;SDS011;33824;51.600;5.718;2022-09-16T17:05:31;2.78;;;1.20;;
48052;SDS011;33824;51.600;5.718;2022-09-16T17:07:56;5.78;;;0.70;;
48052;SDS011;33824;51.600;5.718;2022-09-16T17:10:22;4.30;;;0.93;;
48052;SDS011;33824;51.600;5.718;2022-09-16T17:12:47;11.27;;;1.40;;
48052;SDS011;33824;51.600;5.718;2022-09-16T17:15:13;3.42;;;0.80;;
48052;SDS011;33824;51.600;5.718;2022-09-16T17:17:38;6.53;;;0.90;;
48052;SDS011;33824;51.600;5.718;2022-09-16T17:20:04;5.05;;;1.10;;
48052;SDS011;33824;51.600;5.718;2022-09-16T17:22:30;10.45;;;1.38;;
48052;SDS011;33824;51.600;5.718;2022-09-16T17:24:56;4.55;;;0.88;;
48052;SDS011;33824;51.600;5.718;2022-09-16T17:27:21;3.58;;;0.60;;
48052;SDS011;33824;51.600;5.718;2022-09-16T17:29:49;4.05;;;0.60;;
48052;SDS011;33824;51.600;5.718;2022-09-16T17:32:14;4.75;;;0.90;;
48052;SDS011;33824;51.600;5.718;2022-09-16T17:34:40;7.85;;;1.17;;
48052;SDS011;33824;51.600;5.718;2022-09-16T17:37:05;3.97;;;0.60;;
48052;SDS011;33824;51.600;5.718;2022-09-16T17:39:32;6.05;;;0.90;;
48052;SDS011;33824;51.600;5.718;2022-09-16T17:41:58;2.85;;;0.77;;
48052;SDS011;33824;51.600;5.718;2022-09-16T17:44:24;2.90;;;0.80;;
48052;SDS011;33824;51.600;5.718;2022-09-16T17:46:50;3.78;;;0.88;;
48052;SDS011;33824;51.600;5.718;2022-09-16T17:49:16;6.65;;;1.08;;
48052;SDS011;33824;51.600;5.718;2022-09-16T17:51:44;8.40;;;0.82;;
48052;SDS011;33824;51.600;5.718;2022-09-16T17:54:10;4.20;;;0.80;;
48052;SDS011;33824;51.600;5.718;2022-09-16T17:56:36;4.85;;;0.73;;
48052;SDS011;33824;51.600;5.718;2022-09-16T17:59:01;4.18;;;0.82;;
48052;SDS011;33824;51.600;5.718;2022-09-16T18:01:27;6.28;;;1.20;;
48052;SDS011;33824;51.600;5.718;2022-09-16T18:03:54;7.20;;;0.88;;
48052;SDS011;33824;51.600;5.718;2022-09-16T18:06:25;5.03;;;0.82;;